Time;durP1;ratioP1;P1;durP2;ratioP2;P2;SDS_P1;SDS_P2;PMS_P1;PMS_P2;Temp;Humidity;BMP_temperature;BMP_pressure;BME280_temperature;BME280_humidity;BME280_pressure;Samples;Min_cycle;Max_cycle;Signal;HPM_P1;HPM_P2
2020/12/21 00:03:08;;;;;;;9.00;3.97;;;;;;;5.72;100.00;101300.94;10134478;29;20044;-71
2020/12/21 00:08:10;;;;;;;13.73;3.67;;;;;;;5.80;100.00;101301.72;10130860;29;20060;-71
2020/12/21 00:13:11;;;;;;;9.98;3.42;;;;;;;5.81;100.00;101310.41;10134243;29;20557;-71
2020/12/21 00:18:12;;;;;;;10.13;3.08;;;;;;;5.88;100.00;101319.94;10135098;29;20146;-71
2020/12/21 00:23:14;;;;;;;9.30;4.28;;;;;;;5.77;100.00;101295.66;10133739;29;20036;-71
2020/12/21 00:28:15;;;;;;;12.52;3.20;;;;;;;5.79;100.00;101301.72;10117654;29;20535;-70
2020/12/21 00:33:16;;;;;;;8.43;3.30;;;;;;;5.65;100.00;101294.06;10133631;29;20502;-71
2020/12/21 00:38:17;;;;;;;9.60;3.38;;;;;;;5.61;100.00;101302.81;10143618;29;20052;-70
2020/12/21 00:43:18;;;;;;;11.02;3.80;;;;;;;5.54;100.00;101294.19;10129280;29;20044;-71
2020/12/21 00:48:19;;;;;;;7.80;2.72;;;;;;;5.46;100.00;101297.78;10133103;29;20127;-71
2020/12/21 00:53:21;;;;;;;10.65;2.80;;;;;;;5.37;100.00;101290.06;10117625;29;20076;-71
2020/12/21 00:58:22;;;;;;;11.57;3.65;;;;;;;5.33;100.00;101299.69;10135556;29;20045;-71
2020/12/21 01:03:23;;;;;;;8.68;2.92;;;;;;;5.25;100.00;101302.41;10136273;29;20041;-70
2020/12/21 01:08:24;;;;;;;9.00;3.17;;;;;;;5.26;100.00;101309.38;10139830;29;20044;-71
2020/12/21 01:13:26;;;;;;;11.02;3.67;;;;;;;5.24;100.00;101316.34;10125028;29;20405;-70
2020/12/21 01:18:27;;;;;;;8.43;3.20;;;;;;;5.11;100.00;101311.25;10144057;29;20536;-70
2020/12/21 01:23:28;;;;;;;10.00;3.50;;;;;;;5.13;100.00;101322.56;10177355;29;20048;-71
2020/12/21 01:28:29;;;;;;;8.93;3.97;;;;;;;5.05;100.00;101330.47;10140877;29;20148;-70
2020/12/21 01:33:30;;;;;;;10.10;3.05;;;;;;;5.16;100.00;101335.59;10139808;29;20085;-71
2020/12/21 01:38:31;;;;;;;11.43;3.40;;;;;;;5.17;100.00;101334.72;10140826;29;20059;-70
2020/12/21 01:43:33;;;;;;;7.55;3.17;;;;;;;5.14;100.00;101327.78;10140081;29;20047;-71
2020/12/21 01:48:34;;;;;;;12.45;3.00;;;;;;;5.17;100.00;101330.34;10158294;29;20055;-70
2020/12/21 01:53:37;;;;;;;8.70;2.90;;;;;;;5.12;100.00;101329.53;10151398;29;20068;-71
2020/12/21 01:58:39;;;;;;;9.73;3.40;;;;;;;5.00;100.00;101324.44;10120238;29;20069;-70
2020/12/21 02:03:41;;;;;;;11.73;3.63;;;;;;;4.89;100.00;101311.47;10112972;29;20041;-71
2020/12/21 02:08:42;;;;;;;6.00;2.78;;;;;;;4.06;100.00;101299.13;10137861;29;20047;-71
2020/12/21 02:13:43;;;;;;;8.68;3.50;;;;;;;3.68;100.00;101294.16;10138584;29;20508;-71
2020/12/21 02:18:45;;;;;;;11.75;3.80;;;;;;;3.61;100.00;101315.88;10137258;29;20120;-71
2020/12/21 02:23:46;;;;;;;9.90;4.10;;;;;;;3.34;100.00;101314.25;10139242;29;20073;-70
2020/12/21 02:28:54;;;;;;;12.57;4.35;;;;;;;3.21;100.00;101335.97;10138238;29;20052;-71
2020/12/21 02:33:55;;;;;;;10.20;4.32;;;;;;;3.75;100.00;101374.03;10138907;29;20056;-71
2020/12/21 02:38:56;;;;;;;8.88;3.38;;;;;;;3.99;100.00;101373.91;10139225;29;20080;-70
2020/12/21 02:43:58;;;;;;;10.18;3.53;;;;;;;4.04;100.00;101379.94;10138605;29;20052;-71
2020/12/21 02:48:59;;;;;;;10.85;4.05;;;;;;;4.05;100.00;101375.59;10138728;29;20458;-71
2020/12/21 02:54:00;;;;;;;8.77;3.90;;;;;;;4.11;100.00;101384.25;10137783;29;20092;-70
2020/12/21 02:59:02;;;;;;;11.82;4.82;;;;;;;3.74;100.00;101364.47;10138199;29;20036;-70
2020/12/21 03:04:04;;;;;;;9.13;3.92;;;;;;;3.60;100.00;101359.28;10138168;29;20044;-70
2020/12/21 03:09:05;;;;;;;10.40;3.35;;;;;;;3.64;100.00;101366.25;10137316;29;20757;-70
2020/12/21 03:14:06;;;;;;;12.30;3.75;;;;;;;3.89;100.00;101386.97;10137494;29;20075;-70
2020/12/21 03:19:07;;;;;;;10.25;3.50;;;;;;;4.03;100.00;101392.97;10119662;29;20041;-70
2020/12/21 03:24:08;;;;;;;9.15;3.53;;;;;;;3.92;100.00;101382.63;10137046;29;20049;-70
2020/12/21 03:29:09;;;;;;;8.48;3.20;;;;;;;3.76;100.00;101363.59;10136598;29;20394;-70
2020/12/21 03:34:13;;;;;;;10.48;3.70;;;;;;;3.76;100.00;101353.16;10135750;29;20057;-70
2020/12/21 03:39:16;;;;;;;8.80;3.42;;;;;;;3.70;100.00;101352.31;10136135;29;20040;-71
2020/12/21 03:44:17;;;;;;;10.55;4.55;;;;;;;3.55;100.00;101352.38;10136660;29;20046;-71
2020/12/21 03:49:18;;;;;;;9.93;3.67;;;;;;;3.57;100.00;101351.50;10135398;29;20045;-71
2020/12/21 03:54:19;;;;;;;6.78;2.75;;;;;;;3.52;100.00;101353.25;10136239;29;20064;-71
2020/12/21 03:59:20;;;;;;;8.68;2.90;;;;;;;3.30;100.00;101342.03;10135575;29;20056;-70
2020/12/21 04:04:21;;;;;;;5.30;2.70;;;;;;;3.17;100.00;101340.34;10118832;29;20446;-71
2020/12/21 04:09:22;;;;;;;8.73;3.72;;;;;;;3.20;100.00;101355.94;10112056;29;20056;-71
2020/12/21 04:14:24;;;;;;;8.20;2.95;;;;;;;3.23;100.00;101358.56;10135336;29;20485;-71
2020/12/21 04:19:25;;;;;;;8.43;2.85;;;;;;;3.22;100.00;101355.94;10118567;29;20450;-71
2020/12/21 04:24:26;;;;;;;10.75;3.42;;;;;;;3.31;100.00;101367.22;10095615;29;20041;-71
2020/12/21 04:29:27;;;;;;;8.98;3.17;;;;;;;3.35;100.00;101357.63;10112880;29;20438;-70
2020/12/21 04:34:28;;;;;;;7.20;2.85;;;;;;;3.25;100.00;101371.56;10129504;29;20505;-71
2020/12/21 04:39:30;;;;;;;5.63;2.95;;;;;;;3.16;100.00;101364.66;10136524;29;20044;-70
2020/12/21 04:44:31;;;;;;;10.35;3.33;;;;;;;2.94;100.00;101353.38;10142434;29;20052;-71
2020/12/21 04:49:33;;;;;;;7.13;3.88;;;;;;;3.02;100.00;101362.03;10142543;29;20092;-70
2020/12/21 04:54:34;;;;;;;7.68;3.60;;;;;;;2.96;100.00;101366.41;10143048;29;20056;-71
2020/12/21 04:59:35;;;;;;;7.72;3.40;;;;;;;2.96;100.00;101350.78;10142577;29;20409;-71
2020/12/21 05:04:36;;;;;;;8.85;3.80;;;;;;;2.90;100.00;101354.25;10141734;29;20043;-70
2020/12/21 05:09:38;;;;;;;10.02;3.67;;;;;;;2.91;100.00;101356.00;10142807;29;20096;-71
2020/12/21 05:14:40;;;;;;;11.80;3.63;;;;;;;3.08;100.00;101355.97;10125977;29;20044;-71
2020/12/21 05:19:41;;;;;;;9.40;3.22;;;;;;;3.17;100.00;101344.69;10124017;29;20052;-71
2020/12/21 05:24:43;;;;;;;7.30;3.65;;;;;;;3.23;100.00;101350.75;10141495;29;20489;-71
2020/12/21 05:29:52;;;;;;;10.05;3.80;;;;;;;3.24;100.00;101347.28;10144785;29;20489;-70
2020/12/21 05:35:05;;;;;;;11.75;3.75;;;;;;;3.37;100.00;101354.16;10141948;29;20053;-70
2020/12/21 05:40:08;;;;;;;15.20;4.25;;;;;;;3.42;100.00;101339.41;10129418;29;20048;-70
2020/12/21 05:45:10;;;;;;;13.40;4.22;;;;;;;3.50;100.00;101346.31;10139158;29;20048;-71
2020/12/21 05:50:11;;;;;;;10.80;3.60;;;;;;;3.62;100.00;101335.84;10132799;29;20074;-70
2020/12/21 05:55:12;;;;;;;10.95;3.58;;;;;;;3.77;100.00;101340.97;10140091;29;20048;-70
2020/12/21 06:00:15;;;;;;;13.20;3.60;;;;;;;3.71;100.00;101335.81;10140449;29;20048;-70
2020/12/21 06:05:19;;;;;;;8.90;4.13;;;;;;;3.60;100.00;101319.38;10123869;29;20055;-70
2020/12/21 06:10:20;;;;;;;10.35;3.35;;;;;;;3.59;100.00;101321.13;10141290;29;20104;-70
2020/12/21 06:15:25;;;;;;;11.35;3.78;;;;;;;3.60;100.00;101316.78;10139627;29;20182;-70
2020/12/21 06:20:27;;;;;;;13.00;3.95;;;;;;;3.70;100.00;101318.44;10139401;29;20442;-70
2020/12/21 06:25:28;;;;;;;9.50;3.78;;;;;;;3.84;100.00;101340.09;10138483;29;20401;-70
2020/12/21 06:30:30;;;;;;;10.88;3.92;;;;;;;3.86;100.00;101333.13;10138952;29;20415;-70
2020/12/21 06:35:42;;;;;;;12.48;4.20;;;;;;;3.83;100.00;101330.53;10138680;29;20083;-70
2020/12/21 06:40:43;;;;;;;10.13;4.10;;;;;;;4.00;100.00;101346.97;10138830;29;20116;-70
2020/12/21 06:45:44;;;;;;;9.57;4.10;;;;;;;4.00;100.00;101343.50;10138297;29;20092;-70
2020/12/21 06:50:45;;;;;;;19.88;5.32;;;;;;;4.06;100.00;101341.72;10138773;29;20056;-70
2020/12/21 06:55:46;;;;;;;15.38;5.30;;;;;;;4.06;100.00;101339.09;10137589;29;20044;-70
2020/12/21 07:00:52;;;;;;;11.85;5.28;;;;;;;3.99;100.00;101334.81;10138014;29;20045;-70
2020/12/21 07:05:58;;;;;;;8.25;4.40;;;;;;;4.09;100.00;101351.25;10120875;29;20045;-70
2020/12/21 07:10:59;;;;;;;13.43;5.32;;;;;;;4.14;100.00;101339.91;10136864;29;20052;-70
2020/12/21 07:16:00;;;;;;;10.45;4.60;;;;;;;4.24;100.00;101355.50;10137014;29;20045;-70
2020/12/21 07:21:06;;;;;;;15.43;5.50;;;;;;;4.29;100.00;101340.69;10112655;29;20112;-70
2020/12/21 07:26:08;;;;;;;14.57;6.40;;;;;;;4.29;100.00;101328.50;10130950;29;20052;-69
2020/12/21 07:31:14;;;;;;;14.52;5.85;;;;;;;4.36;100.00;101326.72;10130106;29;20044;-68
2020/12/21 07:36:17;;;;;;;12.68;6.25;;;;;;;4.31;100.00;101321.56;10135097;29;20175;-68
2020/12/21 07:41:23;;;;;;;15.05;7.38;;;;;;;4.35;100.00;101328.47;10128118;29;20044;-68
2020/12/21 07:46:26;;;;;;;13.13;7.15;;;;;;;4.34;100.00;101334.59;10135194;29;20529;-68
2020/12/21 07:51:27;;;;;;;11.98;7.20;;;;;;;4.31;100.00;101336.34;10134695;29;20096;-68
2020/12/21 07:56:29;;;;;;;16.55;8.35;;;;;;;4.35;100.00;101340.66;10134853;29;20052;-68
2020/12/21 08:01:33;;;;;;;15.27;7.13;;;;;;;4.39;100.00;101347.56;10134535;29;20040;-68
2020/12/21 08:06:34;;;;;;;16.20;7.05;;;;;;;4.39;100.00;101345.84;10133996;29;20056;-69
2020/12/21 08:11:36;;;;;;;13.18;8.75;;;;;;;4.45;100.00;101329.25;10131328;29;20044;-69
2020/12/21 08:16:37;;;;;;;15.05;7.50;;;;;;;4.57;100.00;101342.22;10130351;29;20390;-69
2020/12/21 08:21:41;;;;;;;16.75;7.70;;;;;;;4.65;100.00;101336.94;10133639;29;20040;-69
2020/12/21 08:26:42;;;;;;;14.70;5.93;;;;;;;4.78;100.00;101333.34;10131828;29;20048;-69
2020/12/21 08:31:44;;;;;;;11.07;6.05;;;;;;;4.84;100.00;101320.25;10132164;29;20045;-69
2020/12/21 08:36:46;;;;;;;13.80;6.05;;;;;;;4.94;100.00;101316.66;10128372;29;20072;-68
2020/12/21 08:41:51;;;;;;;12.65;6.55;;;;;;;5.04;100.00;101312.19;10134694;29;20083;-69
2020/12/21 08:46:54;;;;;;;10.85;5.57;;;;;;;5.11;100.00;101304.28;10134394;29;20052;-68
2020/12/21 08:52:00;;;;;;;16.05;6.15;;;;;;;5.17;100.00;101295.53;10133574;29;20064;-68
2020/12/21 08:57:03;;;;;;;9.68;4.72;;;;;;;5.25;100.00;101291.09;10124892;29;20040;-68
2020/12/21 09:02:04;;;;;;;12.38;5.50;;;;;;;5.29;100.00;101287.53;10098828;29;20056;-69
2020/12/21 09:07:05;;;;;;;12.63;5.90;;;;;;;5.41;100.00;101289.16;10132193;29;20064;-69
2020/12/21 09:12:06;;;;;;;11.40;5.57;;;;;;;5.48;100.00;101289.06;10132755;29;20040;-69
2020/12/21 09:17:08;;;;;;;10.35;6.20;;;;;;;5.51;100.00;101282.94;10133766;29;20037;-69
2020/12/21 09:22:09;;;;;;;9.82;5.45;;;;;;;5.62;100.00;101283.66;10130291;29;20043;-69
2020/12/21 09:27:11;;;;;;;12.63;5.75;;;;;;;5.59;100.00;101253.22;10139155;29;20083;-69
2020/12/21 09:32:12;;;;;;;15.07;5.40;;;;;;;5.68;100.00;101270.53;10142368;29;20084;-69
2020/12/21 09:37:14;;;;;;;13.25;5.13;;;;;;;5.78;100.00;101250.31;10129457;29;20048;-69
2020/12/21 09:42:16;;;;;;;12.60;5.63;;;;;;;5.80;100.00;101241.56;10120527;29;20470;-69
2020/12/21 09:47:18;;;;;;;13.68;5.80;;;;;;;5.93;100.00;101242.31;10147137;29;20048;-69
2020/12/21 09:52:19;;;;;;;13.93;5.60;;;;;;;5.98;100.00;101233.50;10130637;29;20124;-69
2020/12/21 09:57:20;;;;;;;13.02;5.75;;;;;;;6.11;100.00;101241.16;10155005;29;20083;-69
2020/12/21 10:02:21;;;;;;;11.35;6.30;;;;;;;6.22;100.00;101226.13;10109709;29;20040;-69
2020/12/21 10:07:22;;;;;;;14.60;6.35;;;;;;;6.30;100.00;101211.16;10146473;29;20080;-69
2020/12/21 10:12:23;;;;;;;11.48;5.07;;;;;;;6.35;100.00;101196.28;10139197;29;20048;-70
2020/12/21 10:17:24;;;;;;;14.80;6.45;;;;;;;6.48;100.00;101203.00;10138639;29;20056;-69
2020/12/21 10:22:25;;;;;;;14.35;6.07;;;;;;;6.55;100.00;101190.66;10137257;29;20036;-69
2020/12/21 10:27:29;;;;;;;14.52;4.93;;;;;;;6.64;100.00;101167.81;10138583;29;20489;-68
2020/12/21 10:32:30;;;;;;;13.05;4.78;;;;;;;6.83;100.00;101169.19;10120841;29;20049;-69
2020/12/21 10:37:31;;;;;;;14.23;6.25;;;;;;;6.93;100.00;101146.28;10136264;29;20056;-69
2020/12/21 10:42:32;;;;;;;10.77;5.70;;;;;;;6.94;100.00;101132.31;10138734;29;20063;-69
2020/12/21 10:47:33;;;;;;;16.17;6.30;;;;;;;6.93;100.00;101122.72;10120894;29;20055;-69
2020/12/21 10:52:34;;;;;;;14.30;5.88;;;;;;;6.94;100.00;101116.59;10137437;29;20572;-69
2020/12/21 10:57:35;;;;;;;12.75;5.15;;;;;;;6.98;100.00;101093.78;10137053;29;20454;-69
2020/12/21 11:02:37;;;;;;;12.25;6.00;;;;;;;6.94;100.00;101079.91;10137808;29;20044;-69
2020/12/21 11:07:38;;;;;;;8.82;4.75;;;;;;;6.96;100.00;101065.00;10137679;29;20055;-69
2020/12/21 11:12:45;;;;;;;16.38;6.07;;;;;;;6.97;100.00;101058.00;10137441;29;20049;-69
2020/12/21 11:17:46;;;;;;;13.38;4.65;;;;;;;6.98;100.00;101038.78;10135512;29;20060;-69
2020/12/21 11:22:47;;;;;;;11.40;5.70;;;;;;;6.96;100.00;101045.81;10134435;29;20045;-68
2020/12/21 11:27:48;;;;;;;10.68;5.00;;;;;;;6.98;100.00;101037.03;10136259;29;20056;-69
2020/12/21 11:32:49;;;;;;;6.22;3.90;;;;;;;7.03;100.00;101022.06;10136318;29;20402;-69
2020/12/21 11:37:51;;;;;;;12.63;5.05;;;;;;;7.10;100.00;101023.66;10135314;29;20069;-69
2020/12/21 11:42:59;;;;;;;8.98;4.90;;;;;;;7.13;100.00;101004.38;10119720;29;20139;-69
2020/12/21 11:48:00;;;;;;;12.93;5.40;;;;;;;7.23;100.00;101006.75;10118872;29;20052;-68
2020/12/21 11:53:02;;;;;;;8.90;5.78;;;;;;;7.29;100.00;100989.13;10135454;29;20052;-68
2020/12/21 11:58:04;;;;;;;14.30;5.38;;;;;;;7.30;100.00;100962.88;10135293;29;20045;-69
2020/12/21 12:03:05;;;;;;;10.85;5.85;;;;;;;7.30;100.00;100973.38;10125284;29;20052;-69
2020/12/21 12:08:06;;;;;;;10.13;5.68;;;;;;;7.33;100.00;100967.22;10131815;29;20055;-69
2020/12/21 12:13:18;;;;;;;13.32;6.68;;;;;;;7.24;100.00;100961.28;10134481;29;20401;-68
2020/12/21 12:18:19;;;;;;;13.85;7.43;;;;;;;7.33;100.00;100961.97;10133694;29;20056;-69
2020/12/21 12:23:20;;;;;;;13.90;7.88;;;;;;;7.13;100.00;100951.97;10132846;29;20052;-69
2020/12/21 12:28:22;;;;;;;11.73;7.47;;;;;;;7.09;100.00;100948.56;10131805;29;20454;-69
2020/12/21 12:33:23;;;;;;;13.75;8.25;;;;;;;7.05;100.00;100940.81;10132460;29;20065;-69
2020/12/21 12:38:24;;;;;;;14.23;5.90;;;;;;;6.97;100.00;100941.00;10133918;29;20167;-69
2020/12/21 12:43:45;;;;;;;13.40;6.82;;;;;;;6.97;100.00;100959.34;10134097;29;20134;-69
2020/12/21 12:48:46;;;;;;;12.88;6.93;;;;;;;7.02;100.00;100967.09;10134907;29;20099;-69
2020/12/21 12:53:47;;;;;;;16.92;8.38;;;;;;;6.97;100.00;100938.38;10133134;29;20486;-69
2020/12/21 12:58:49;;;;;;;17.25;7.85;;;;;;;6.88;100.00;100922.88;10121441;29;20044;-69
2020/12/21 13:03:50;;;;;;;17.15;8.13;;;;;;;6.88;100.00;100909.78;10142522;29;20049;-69
2020/12/21 13:08:51;;;;;;;13.20;7.45;;;;;;;6.94;100.00;100921.91;10142678;29;20049;-69
2020/12/21 13:13:56;;;;;;;14.93;7.55;;;;;;;6.93;100.00;100915.81;10125696;29;20496;-69
2020/12/21 13:18:57;;;;;;;14.00;7.70;;;;;;;6.88;100.00;100899.31;10115990;29;20053;-69
2020/12/21 13:24:00;;;;;;;17.83;7.70;;;;;;;6.89;100.00;100908.91;10141732;29;20512;-69
2020/12/21 13:29:01;;;;;;;10.65;7.47;;;;;;;6.88;100.00;100907.19;10133452;29;20063;-69
2020/12/21 13:34:02;;;;;;;14.95;7.95;;;;;;;6.88;100.00;100901.94;10134270;29;20061;-69
2020/12/21 13:39:03;;;;;;;15.05;8.48;;;;;;;6.88;100.00;100896.69;10138800;29;20072;-69
2020/12/21 13:44:24;;;;;;;14.65;8.40;;;;;;;6.86;100.00;100873.16;10139310;29;20051;-69
2020/12/21 13:49:25;;;;;;;15.68;7.57;;;;;;;6.92;100.00;100874.78;10139938;29;20040;-69
2020/12/21 13:54:26;;;;;;;13.48;8.30;;;;;;;6.91;100.00;100869.59;10138934;29;20053;-69
2020/12/21 13:59:27;;;;;;;12.60;7.70;;;;;;;6.90;100.00;100865.25;10139778;29;20045;-69
2020/12/21 14:04:28;;;;;;;18.60;8.40;;;;;;;6.88;100.00;100846.09;10138925;29;20044;-70
2020/12/21 14:09:30;;;;;;;13.75;7.70;;;;;;;6.84;100.00;100850.56;10133900;29;20048;-69
2020/12/21 14:14:33;;;;;;;16.15;7.80;;;;;;;6.86;100.00;100846.97;10119878;29;20044;-69
2020/12/21 14:19:34;;;;;;;13.32;7.93;;;;;;;6.84;100.00;100825.22;10132523;29;20202;-69
2020/12/21 14:24:35;;;;;;;12.50;6.80;;;;;;;6.80;100.00;100822.72;10126699;29;20036;-69
2020/12/21 14:29:36;;;;;;;17.08;8.20;;;;;;;6.79;100.00;100818.38;10138701;29;20056;-69
2020/12/21 14:34:37;;;;;;;10.85;5.72;;;;;;;6.79;100.00;100808.75;10137046;29;20056;-69
2020/12/21 14:39:39;;;;;;;14.95;7.15;;;;;;;6.78;100.00;100808.78;10131520;29;20048;-69
2020/12/21 14:44:51;;;;;;;18.00;8.20;;;;;;;6.83;100.00;100804.31;10137876;29;20124;-70
2020/12/21 14:49:52;;;;;;;17.60;7.63;;;;;;;6.77;100.00;100778.28;10131606;29;20044;-69
2020/12/21 14:54:54;;;;;;;19.50;7.93;;;;;;;6.81;100.00;100772.94;10136852;29;20048;-69
2020/12/21 14:59:55;;;;;;;15.73;7.65;;;;;;;6.84;100.00;100758.91;10138021;29;20048;-70
2020/12/21 15:04:56;;;;;;;12.82;7.03;;;;;;;6.85;100.00;100734.44;10135760;29;20040;-70
2020/12/21 15:10:07;;;;;;;9.68;6.07;;;;;;;6.87;100.00;100724.75;10121078;29;20488;-69
2020/12/21 15:15:13;;;;;;;8.38;4.90;;;;;;;6.84;100.00;100728.34;10120269;29;20405;-70
2020/12/21 15:20:14;;;;;;;10.27;5.53;;;;;;;6.84;100.00;100712.63;10135237;29;20461;-70
2020/12/21 15:25:16;;;;;;;8.10;5.15;;;;;;;6.95;100.00;100714.94;10134883;29;20456;-70
2020/12/21 15:30:17;;;;;;;10.70;5.60;;;;;;;6.88;100.00;100712.53;10132389;29;20381;-69
2020/12/21 15:35:18;;;;;;;10.38;5.40;;;;;;;6.85;100.00;100703.88;10116130;29;20068;-70
2020/12/21 15:40:19;;;;;;;8.50;5.32;;;;;;;6.84;100.00;100690.81;10135013;29;20043;-69
2020/12/21 15:45:27;;;;;;;8.48;5.00;;;;;;;6.89;100.00;100688.06;10136255;29;20131;-69
2020/12/21 15:50:29;;;;;;;9.95;4.47;;;;;;;6.89;100.00;100678.44;10136194;29;20549;-69
2020/12/21 15:55:30;;;;;;;9.45;6.18;;;;;;;6.90;100.00;100668.81;10124961;29;20076;-69
2020/12/21 16:00:31;;;;;;;6.80;5.20;;;;;;;6.87;100.00;100654.06;10135803;29;20044;-69
2020/12/21 16:05:32;;;;;;;9.90;6.22;;;;;;;6.86;100.00;100647.13;10132804;29;20052;-70
2020/12/21 16:10:33;;;;;;;10.82;5.50;;;;;;;6.94;100.00;100628.56;10127255;29;20045;-69
2020/12/21 16:15:50;;;;;;;11.07;7.05;;;;;;;6.89;100.00;100628.69;10126152;29;20044;-70
2020/12/21 16:20:51;;;;;;;11.07;6.00;;;;;;;6.92;100.00;100630.38;10131121;29;20413;-69
2020/12/21 16:25:53;;;;;;;11.13;6.05;;;;;;;6.88;100.00;100631.34;10131664;29;20060;-70
2020/12/21 16:30:54;;;;;;;16.75;7.53;;;;;;;6.93;100.00;100656.53;10130106;29;20045;-71
2020/12/21 16:35:55;;;;;;;10.65;6.55;;;;;;;6.91;100.00;100652.22;10137822;29;20470;-70
2020/12/21 16:40:56;;;;;;;11.63;6.20;;;;;;;6.93;100.00;100655.66;10138448;29;20045;-70
2020/12/21 16:46:04;;;;;;;12.52;7.40;;;;;;;6.95;100.00;100657.31;10142475;29;20396;-69
2020/12/21 16:51:05;;;;;;;11.65;6.63;;;;;;;6.92;100.00;100640.84;10141378;29;20417;-70
2020/12/21 16:56:06;;;;;;;12.20;5.80;;;;;;;6.93;100.00;100632.09;10141733;29;20049;-70
2020/12/21 17:01:12;;;;;;;13.50;7.10;;;;;;;6.92;100.00;100635.59;10141094;29;20493;-70
2020/12/21 17:06:16;;;;;;;8.45;5.85;;;;;;;6.88;100.00;100613.00;10140823;29;20041;-70
2020/12/21 17:11:19;;;;;;;11.73;6.95;;;;;;;6.86;100.00;100619.16;10123375;29;20473;-70
2020/12/21 17:16:24;;;;;;;13.40;7.90;;;;;;;6.84;100.00;100604.41;10138404;29;20040;-70
2020/12/21 17:21:29;;;;;;;11.80;7.53;;;;;;;6.79;100.00;100583.56;10136054;29;20044;-70
2020/12/21 17:26:30;;;;;;;11.25;8.68;;;;;;;6.85;100.00;100599.13;10139678;29;20478;-70
2020/12/21 17:31:32;;;;;;;13.57;9.63;;;;;;;6.84;100.00;100584.31;10139386;29;20056;-70
2020/12/21 17:36:33;;;;;;;13.80;9.25;;;;;;;6.84;100.00;100600.03;10138050;29;20040;-70
2020/12/21 17:41:34;;;;;;;13.07;9.10;;;;;;;6.81;100.00;100591.41;10139832;29;20693;-70
2020/12/21 17:46:40;;;;;;;12.32;8.68;;;;;;;6.81;100.00;100579.16;10136903;29;20057;-70
2020/12/21 17:51:42;;;;;;;15.93;10.63;;;;;;;6.91;100.00;100592.00;10138586;29;20057;-70
2020/12/21 17:56:43;;;;;;;14.50;9.75;;;;;;;6.95;100.00;100583.13;10118117;29;20071;-70
2020/12/21 18:01:44;;;;;;;16.08;9.27;;;;;;;6.94;100.00;100570.97;10139238;29;20040;-69
2020/12/21 18:06:45;;;;;;;13.80;9.07;;;;;;;6.92;100.00;100549.19;10138230;29;20493;-70
2020/12/21 18:11:47;;;;;;;13.50;9.07;;;;;;;7.01;100.00;100551.53;10134200;29;20048;-69
2020/12/21 18:16:56;;;;;;;16.00;10.25;;;;;;;7.04;100.00;100554.03;10133829;29;20051;-70
2020/12/21 18:21:57;;;;;;;11.05;7.85;;;;;;;7.06;100.00;100555.72;10113965;29;20049;-71
2020/12/21 18:26:58;;;;;;;12.98;8.30;;;;;;;7.05;100.00;100547.91;10135104;29;20085;-70
2020/12/21 18:32:01;;;;;;;16.20;10.55;;;;;;;7.06;100.00;100560.09;10135929;29;20057;-72
2020/12/21 18:37:02;;;;;;;15.02;9.35;;;;;;;7.07;100.00;100540.84;10135304;29;20059;-71
2020/12/21 18:42:03;;;;;;;14.45;9.52;;;;;;;7.12;100.00;100536.31;10135014;29;20186;-71
2020/12/21 18:47:17;;;;;;;7.93;5.88;;;;;;;7.19;100.00;100540.50;10136660;29;20047;-71
2020/12/21 18:52:19;;;;;;;3.38;2.33;;;;;;;7.40;100.00;100534.56;10137564;29;20040;-71
2020/12/21 18:57:20;;;;;;;2.35;1.40;;;;;;;7.82;100.00;100528.78;10119337;29;20396;-71
2020/12/21 19:02:21;;;;;;;2.22;1.27;;;;;;;8.07;100.00;100513.06;10135930;29;20048;-71
2020/12/21 19:07:22;;;;;;;2.00;1.30;;;;;;;8.12;100.00;100496.22;10131964;29;20044;-71
2020/12/21 19:12:23;;;;;;;2.03;1.38;;;;;;;8.25;100.00;100479.13;10134723;29;20401;-71
2020/12/21 19:17:33;;;;;;;2.65;1.60;;;;;;;8.21;100.00;100446.03;10135279;29;20048;-72
2020/12/21 19:22:34;;;;;;;2.47;1.25;;;;;;;8.40;100.00;100420.00;10135584;29;20045;-72
2020/12/21 19:27:43;;;;;;;1.88;1.20;;;;;;;8.68;100.00;100404.03;10121929;29;20127;-71
2020/12/21 19:32:44;;;;;;;2.25;1.35;;;;;;;8.65;100.00;100364.75;10135850;29;20057;-71
2020/12/21 19:37:45;;;;;;;1.60;1.05;;;;;;;8.66;100.00;100355.97;10113741;29;20044;-71
2020/12/21 19:42:46;;;;;;;1.27;0.90;;;;;;;8.78;100.00;100331.84;10133439;29;20056;-70
2020/12/21 19:47:51;;;;;;;2.70;1.40;;;;;;;8.73;100.00;100318.88;10134794;29;20132;-70
2020/12/21 19:52:53;;;;;;;2.70;1.00;;;;;;;8.81;100.00;100320.31;10135291;29;20068;-70
2020/12/21 19:57:54;;;;;;;2.22;1.20;;;;;;;8.84;100.00;100307.06;10117845;29;20068;-70
2020/12/21 20:02:55;;;;;;;1.33;0.60;;;;;;;8.82;100.00;100311.53;10111791;29;20049;-71
2020/12/21 20:07:56;;;;;;;2.30;1.33;;;;;;;8.74;100.00;100312.72;10120622;29;20052;-71
2020/12/21 20:12:58;;;;;;;3.35;1.80;;;;;;;8.69;100.00;100309.44;10127860;29;20105;-71
2020/12/21 20:18:13;;;;;;;3.08;1.30;;;;;;;8.61;100.00;100300.16;10131420;29;20048;-71
2020/12/21 20:23:14;;;;;;;2.60;1.38;;;;;;;8.63;100.00;100304.41;10133464;29;20041;-71
2020/12/21 20:28:15;;;;;;;2.10;1.35;;;;;;;8.66;100.00;100298.19;10134416;29;20041;-71
2020/12/21 20:33:17;;;;;;;3.88;1.88;;;;;;;8.67;100.00;100297.28;10132920;29;20080;-71
2020/12/21 20:38:18;;;;;;;2.28;1.40;;;;;;;8.70;100.00;100302.41;10134370;29;20052;-70
2020/12/21 20:43:19;;;;;;;2.28;1.45;;;;;;;8.77;100.00;100313.50;10126353;29;20036;-70
2020/12/21 20:48:30;;;;;;;2.45;1.58;;;;;;;8.75;100.00;100313.56;10134284;29;20379;-70
2020/12/21 20:53:32;;;;;;;2.75;1.30;;;;;;;8.70;100.00;100315.53;10117775;29;20052;-70
2020/12/21 20:58:33;;;;;;;3.65;1.75;;;;;;;8.72;100.00;100321.56;10134060;29;20493;-71
2020/12/21 21:03:34;;;;;;;3.00;1.70;;;;;;;8.71;100.00;100322.47;10123486;29;20526;-71
2020/12/21 21:08:41;;;;;;;3.22;1.52;;;;;;;8.75;100.00;100329.31;10128797;29;20053;-71
2020/12/21 21:13:42;;;;;;;4.10;2.63;;;;;;;8.79;100.00;100345.81;10114631;29;20112;-70
2020/12/21 21:18:49;;;;;;;4.82;2.17;;;;;;;8.89;100.00;100347.13;10103031;29;20044;-70
2020/12/21 21:23:50;;;;;;;3.83;1.60;;;;;;;9.03;100.00;100339.53;10106002;29;20405;-70
2020/12/21 21:28:54;;;;;;;2.08;1.10;;;;;;;9.08;100.00;100333.16;10124322;29;20056;-70
2020/12/21 21:33:56;;;;;;;2.10;1.10;;;;;;;9.21;100.00;100320.34;10134072;29;20053;-70
2020/12/21 21:39:03;;;;;;;2.90;1.65;;;;;;;9.28;100.00;100313.06;10139181;29;20053;-71
2020/12/21 21:44:05;;;;;;;1.77;1.17;;;;;;;9.31;100.00;100315.53;10138650;29;20048;-70
2020/12/21 21:49:09;;;;;;;3.03;2.13;;;;;;;9.41;100.00;100325.59;10140254;29;20045;-70
2020/12/21 21:54:11;;;;;;;1.17;0.93;;;;;;;9.44;100.00;100327.25;10139890;29;20040;-70
2020/12/21 21:59:12;;;;;;;2.22;1.40;;;;;;;9.52;100.00;100315.47;10139503;29;20516;-70
2020/12/21 22:04:14;;;;;;;3.70;2.00;;;;;;;9.58;100.00;100313.47;10139184;29;20069;-70
2020/12/21 22:09:15;;;;;;;1.88;1.00;;;;;;;9.80;100.00;100314.19;10138528;29;20044;-70
2020/12/21 22:14:16;;;;;;;1.92;0.90;;;;;;;9.98;100.00;100308.09;10130608;29;20060;-70
2020/12/21 22:19:26;;;;;;;2.45;1.00;;;;;;;10.11;100.00;100311.03;10126566;29;20083;-70
2020/12/21 22:24:27;;;;;;;1.65;1.05;;;;;;;10.26;100.00;100303.28;10137387;29;20044;-70
2020/12/21 22:29:28;;;;;;;3.35;0.80;;;;;;;10.26;100.00;100302.44;10136670;29;20096;-70
2020/12/21 22:34:29;;;;;;;5.68;1.25;;;;;;;10.31;100.00;100300.41;10136836;29;20373;-70
2020/12/21 22:39:30;;;;;;;3.17;1.58;;;;;;;10.30;100.00;100300.50;10137045;29;20041;-71
2020/12/21 22:44:31;;;;;;;3.85;1.50;;;;;;;10.13;100.00;100282.81;10137937;29;20052;-71
2020/12/21 22:49:44;;;;;;;2.00;0.90;;;;;;;10.22;100.00;100285.91;10137427;29;20127;-70
2020/12/21 22:54:45;;;;;;;2.00;1.15;;;;;;;10.47;100.00;100282.94;10138263;29;20055;-70
2020/12/21 22:59:46;;;;;;;2.08;0.93;;;;;;;11.01;100.00;100292.53;10137272;29;20045;-70